sensor_id;sensor_type;location;lat;lon;timestamp;P1;durP1;ratioP1;P2;durP2;ratioP2
79570;SDS011;69034;49.444;7.758;2023-08-12T00:00:09;5.47;;;3.20;;
79570;SDS011;69034;49.444;7.758;2023-08-12T00:04:11;5.63;;;3.13;;
79570;SDS011;69034;49.444;7.758;2023-08-12T00:08:14;5.22;;;2.67;;
79570;SDS011;69034;49.444;7.758;2023-08-12T00:12:15;6.90;;;3.00;;
79570;SDS011;69034;49.444;7.758;2023-08-12T00:16:16;5.22;;;2.60;;
79570;SDS011;69034;49.444;7.758;2023-08-12T00:20:17;5.00;;;2.60;;
79570;SDS011;69034;49.444;7.758;2023-08-12T00:24:17;4.97;;;2.47;;
79570;SDS011;69034;49.444;7.758;2023-08-12T00:28:18;6.40;;;2.80;;
79570;SDS011;69034;49.444;7.758;2023-08-12T00:32:19;8.20;;;2.75;;
79570;SDS011;69034;49.444;7.758;2023-08-12T00:36:19;6.72;;;3.42;;
79570;SDS011;69034;49.444;7.758;2023-08-12T00:40:20;7.18;;;2.95;;
79570;SDS011;69034;49.444;7.758;2023-08-12T00:44:21;5.35;;;3.03;;
79570;SDS011;69034;49.444;7.758;2023-08-12T00:48:21;5.68;;;2.92;;
79570;SDS011;69034;49.444;7.758;2023-08-12T00:52:23;7.55;;;3.08;;
79570;SDS011;69034;49.444;7.758;2023-08-12T00:56:24;8.77;;;3.13;;
79570;SDS011;69034;49.444;7.758;2023-08-12T01:00:26;4.85;;;2.85;;
79570;SDS011;69034;49.444;7.758;2023-08-12T01:04:27;6.15;;;2.88;;
79570;SDS011;69034;49.444;7.758;2023-08-12T01:08:28;5.22;;;2.85;;
79570;SDS011;69034;49.444;7.758;2023-08-12T01:12:36;7.18;;;3.10;;
79570;SDS011;69034;49.444;7.758;2023-08-12T01:16:45;6.85;;;3.45;;
79570;SDS011;69034;49.444;7.758;2023-08-12T01:20:47;5.03;;;2.42;;
79570;SDS011;69034;49.444;7.758;2023-08-12T01:24:51;6.45;;;3.05;;
79570;SDS011;69034;49.444;7.758;2023-08-12T01:28:52;5.60;;;3.40;;
79570;SDS011;69034;49.444;7.758;2023-08-12T01:32:57;6.43;;;3.45;;
79570;SDS011;69034;49.444;7.758;2023-08-12T01:37:11;6.75;;;3.80;;
79570;SDS011;69034;49.444;7.758;2023-08-12T01:41:17;6.90;;;3.05;;
79570;SDS011;69034;49.444;7.758;2023-08-12T01:45:20;7.25;;;3.83;;
79570;SDS011;69034;49.444;7.758;2023-08-12T01:49:20;8.30;;;3.55;;
79570;SDS011;69034;49.444;7.758;2023-08-12T01:53:23;8.82;;;3.70;;
79570;SDS011;69034;49.444;7.758;2023-08-12T01:57:25;6.65;;;4.15;;
79570;SDS011;69034;49.444;7.758;2023-08-12T02:01:25;8.98;;;4.75;;
79570;SDS011;69034;49.444;7.758;2023-08-12T02:05:26;7.40;;;4.45;;
79570;SDS011;69034;49.444;7.758;2023-08-12T02:09:26;12.75;;;5.13;;
79570;SDS011;69034;49.444;7.758;2023-08-12T02:13:27;9.63;;;4.78;;
79570;SDS011;69034;49.444;7.758;2023-08-12T02:17:28;9.48;;;4.32;;
79570;SDS011;69034;49.444;7.758;2023-08-12T02:21:29;8.77;;;4.13;;
79570;SDS011;69034;49.444;7.758;2023-08-12T02:25:30;8.52;;;3.15;;
79570;SDS011;69034;49.444;7.758;2023-08-12T02:29:31;9.25;;;4.03;;
79570;SDS011;69034;49.444;7.758;2023-08-12T02:33:33;8.05;;;3.63;;
79570;SDS011;69034;49.444;7.758;2023-08-12T02:37:33;7.00;;;4.13;;
79570;SDS011;69034;49.444;7.758;2023-08-12T02:41:35;7.15;;;3.70;;
79570;SDS011;69034;49.444;7.758;2023-08-12T02:45:35;6.53;;;4.00;;
79570;SDS011;69034;49.444;7.758;2023-08-12T02:49:36;6.53;;;3.40;;
79570;SDS011;69034;49.444;7.758;2023-08-12T02:53:37;6.88;;;3.97;;
79570;SDS011;69034;49.444;7.758;2023-08-12T02:57:37;6.38;;;3.47;;
79570;SDS011;69034;49.444;7.758;2023-08-12T03:01:40;6.03;;;3.60;;
79570;SDS011;69034;49.444;7.758;2023-08-12T03:05:44;8.30;;;4.15;;
79570;SDS011;69034;49.444;7.758;2023-08-12T03:09:46;10.05;;;3.65;;
79570;SDS011;69034;49.444;7.758;2023-08-12T03:13:47;9.32;;;4.40;;
79570;SDS011;69034;49.444;7.758;2023-08-12T03:17:48;7.00;;;4.13;;
79570;SDS011;69034;49.444;7.758;2023-08-12T03:21:48;8.90;;;4.22;;
79570;SDS011;69034;49.444;7.758;2023-08-12T03:25:49;10.13;;;4.03;;
79570;SDS011;69034;49.444;7.758;2023-08-12T03:29:50;8.40;;;4.35;;
79570;SDS011;69034;49.444;7.758;2023-08-12T03:33:50;7.38;;;3.60;;
79570;SDS011;69034;49.444;7.758;2023-08-12T03:37:51;7.57;;;4.03;;
79570;SDS011;69034;49.444;7.758;2023-08-12T03:41:54;7.15;;;3.58;;
79570;SDS011;69034;49.444;7.758;2023-08-12T03:45:55;7.57;;;3.95;;
79570;SDS011;69034;49.444;7.758;2023-08-12T03:49:56;6.28;;;3.60;;
79570;SDS011;69034;49.444;7.758;2023-08-12T03:53:57;9.35;;;3.60;;
79570;SDS011;69034;49.444;7.758;2023-08-12T03:57:58;5.53;;;3.53;;
79570;SDS011;69034;49.444;7.758;2023-08-12T04:01:59;9.15;;;3.97;;
79570;SDS011;69034;49.444;7.758;2023-08-12T04:06:00;9.27;;;4.03;;
79570;SDS011;69034;49.444;7.758;2023-08-12T04:10:01;6.35;;;3.38;;
79570;SDS011;69034;49.444;7.758;2023-08-12T04:14:02;7.15;;;3.83;;
79570;SDS011;69034;49.444;7.758;2023-08-12T04:18:02;10.85;;;3.55;;
79570;SDS011;69034;49.444;7.758;2023-08-12T04:22:03;6.85;;;3.78;;
79570;SDS011;69034;49.444;7.758;2023-08-12T04:26:04;6.22;;;3.45;;
79570;SDS011;69034;49.444;7.758;2023-08-12T04:30:05;5.03;;;2.95;;
79570;SDS011;69034;49.444;7.758;2023-08-12T04:34:06;7.18;;;4.00;;
79570;SDS011;69034;49.444;7.758;2023-08-12T04:38:07;6.15;;;3.47;;
79570;SDS011;69034;49.444;7.758;2023-08-12T04:42:08;6.90;;;3.75;;
79570;SDS011;69034;49.444;7.758;2023-08-12T04:46:09;7.97;;;3.90;;
79570;SDS011;69034;49.444;7.758;2023-08-12T04:50:09;6.10;;;3.38;;
79570;SDS011;69034;49.444;7.758;2023-08-12T04:54:10;8.45;;;3.97;;
79570;SDS011;69034;49.444;7.758;2023-08-12T04:58:11;6.68;;;3.85;;
79570;SDS011;69034;49.444;7.758;2023-08-12T05:02:12;7.97;;;3.20;;
79570;SDS011;69034;49.444;7.758;2023-08-12T05:06:13;6.28;;;3.40;;
79570;SDS011;69034;49.444;7.758;2023-08-12T05:10:15;5.97;;;3.28;;
79570;SDS011;69034;49.444;7.758;2023-08-12T05:14:16;7.18;;;3.85;;
79570;SDS011;69034;49.444;7.758;2023-08-12T05:18:17;6.68;;;3.67;;
79570;SDS011;69034;49.444;7.758;2023-08-12T05:22:17;5.57;;;3.63;;
79570;SDS011;69034;49.444;7.758;2023-08-12T05:26:19;5.63;;;3.22;;
79570;SDS011;69034;49.444;7.758;2023-08-12T05:30:20;6.07;;;3.92;;
79570;SDS011;69034;49.444;7.758;2023-08-12T05:34:21;6.88;;;3.55;;
79570;SDS011;69034;49.444;7.758;2023-08-12T05:38:22;9.50;;;3.65;;
79570;SDS011;69034;49.444;7.758;2023-08-12T05:42:23;7.75;;;3.58;;
79570;SDS011;69034;49.444;7.758;2023-08-12T05:46:23;7.55;;;3.25;;
79570;SDS011;69034;49.444;7.758;2023-08-12T05:50:24;6.18;;;3.53;;
79570;SDS011;69034;49.444;7.758;2023-08-12T05:54:25;10.63;;;4.63;;
79570;SDS011;69034;49.444;7.758;2023-08-12T05:58:25;5.20;;;3.22;;
79570;SDS011;69034;49.444;7.758;2023-08-12T06:02:26;6.93;;;3.85;;
79570;SDS011;69034;49.444;7.758;2023-08-12T06:06:26;6.07;;;3.78;;
79570;SDS011;69034;49.444;7.758;2023-08-12T06:10:27;5.60;;;3.78;;
79570;SDS011;69034;49.444;7.758;2023-08-12T06:14:28;6.85;;;3.90;;
79570;SDS011;69034;49.444;7.758;2023-08-12T06:18:29;7.13;;;3.90;;
79570;SDS011;69034;49.444;7.758;2023-08-12T06:22:29;5.88;;;3.40;;
79570;SDS011;69034;49.444;7.758;2023-08-12T06:26:30;6.95;;;3.80;;
79570;SDS011;69034;49.444;7.758;2023-08-12T06:30:30;6.88;;;3.72;;
79570;SDS011;69034;49.444;7.758;2023-08-12T06:34:31;5.70;;;3.38;;
79570;SDS011;69034;49.444;7.758;2023-08-12T06:38:32;7.28;;;3.28;;
79570;SDS011;69034;49.444;7.758;2023-08-12T06:42:32;8.80;;;4.20;;
79570;SDS011;69034;49.444;7.758;2023-08-12T06:46:33;7.18;;;3.55;;
79570;SDS011;69034;49.444;7.758;2023-08-12T06:50:34;7.53;;;3.65;;
79570;SDS011;69034;49.444;7.758;2023-08-12T06:54:36;5.38;;;3.55;;
79570;SDS011;69034;49.444;7.758;2023-08-12T06:58:36;5.20;;;3.30;;
79570;SDS011;69034;49.444;7.758;2023-08-12T07:02:37;7.18;;;4.47;;
79570;SDS011;69034;49.444;7.758;2023-08-12T07:06:40;7.88;;;4.10;;
79570;SDS011;69034;49.444;7.758;2023-08-12T07:10:41;10.27;;;4.20;;
79570;SDS011;69034;49.444;7.758;2023-08-12T07:14:41;5.55;;;3.55;;
79570;SDS011;69034;49.444;7.758;2023-08-12T07:18:42;7.78;;;4.05;;
79570;SDS011;69034;49.444;7.758;2023-08-12T07:22:43;5.40;;;3.30;;
79570;SDS011;69034;49.444;7.758;2023-08-12T07:26:43;7.32;;;4.63;;
79570;SDS011;69034;49.444;7.758;2023-08-12T07:30:44;5.90;;;4.03;;
79570;SDS011;69034;49.444;7.758;2023-08-12T07:34:46;7.15;;;4.22;;
79570;SDS011;69034;49.444;7.758;2023-08-12T07:38:48;7.90;;;3.80;;
79570;SDS011;69034;49.444;7.758;2023-08-12T07:42:48;6.45;;;4.20;;
79570;SDS011;69034;49.444;7.758;2023-08-12T07:46:49;6.93;;;4.35;;
79570;SDS011;69034;49.444;7.758;2023-08-12T07:50:56;6.13;;;3.80;;
79570;SDS011;69034;49.444;7.758;2023-08-12T07:54:57;7.57;;;4.30;;
79570;SDS011;69034;49.444;7.758;2023-08-12T07:58:58;8.82;;;4.70;;
79570;SDS011;69034;49.444;7.758;2023-08-12T08:02:58;7.97;;;4.60;;
79570;SDS011;69034;49.444;7.758;2023-08-12T08:07:00;7.25;;;4.35;;
79570;SDS011;69034;49.444;7.758;2023-08-12T08:11:00;6.95;;;4.28;;
79570;SDS011;69034;49.444;7.758;2023-08-12T08:15:02;7.30;;;4.68;;
79570;SDS011;69034;49.444;7.758;2023-08-12T08:19:03;8.23;;;4.35;;
79570;SDS011;69034;49.444;7.758;2023-08-12T08:23:03;8.35;;;4.70;;
79570;SDS011;69034;49.444;7.758;2023-08-12T08:27:04;7.53;;;4.13;;
79570;SDS011;69034;49.444;7.758;2023-08-12T08:31:05;7.88;;;4.78;;
79570;SDS011;69034;49.444;7.758;2023-08-12T08:35:06;8.02;;;4.15;;
79570;SDS011;69034;49.444;7.758;2023-08-12T08:39:06;9.45;;;4.30;;
79570;SDS011;69034;49.444;7.758;2023-08-12T08:43:07;8.45;;;4.57;;
79570;SDS011;69034;49.444;7.758;2023-08-12T08:47:08;7.20;;;3.30;;
79570;SDS011;69034;49.444;7.758;2023-08-12T08:51:10;9.27;;;3.50;;
79570;SDS011;69034;49.444;7.758;2023-08-12T08:55:11;5.80;;;3.42;;
79570;SDS011;69034;49.444;7.758;2023-08-12T08:59:12;6.18;;;3.80;;
79570;SDS011;69034;49.444;7.758;2023-08-12T09:03:13;7.68;;;4.40;;
79570;SDS011;69034;49.444;7.758;2023-08-12T09:07:15;9.38;;;4.20;;
79570;SDS011;69034;49.444;7.758;2023-08-12T09:11:15;5.90;;;4.35;;
79570;SDS011;69034;49.444;7.758;2023-08-12T09:15:17;6.07;;;3.60;;
79570;SDS011;69034;49.444;7.758;2023-08-12T09:19:18;7.43;;;3.55;;
79570;SDS011;69034;49.444;7.758;2023-08-12T09:23:19;7.43;;;3.58;;
79570;SDS011;69034;49.444;7.758;2023-08-12T09:27:20;5.85;;;3.60;;
79570;SDS011;69034;49.444;7.758;2023-08-12T09:31:24;7.05;;;3.20;;
79570;SDS011;69034;49.444;7.758;2023-08-12T09:35:41;7.00;;;3.42;;
79570;SDS011;69034;49.444;7.758;2023-08-12T09:39:42;6.45;;;3.35;;
79570;SDS011;69034;49.444;7.758;2023-08-12T09:43:43;7.15;;;3.03;;
79570;SDS011;69034;49.444;7.758;2023-08-12T09:47:44;7.07;;;3.25;;
79570;SDS011;69034;49.444;7.758;2023-08-12T09:51:45;5.00;;;2.78;;
79570;SDS011;69034;49.444;7.758;2023-08-12T09:55:47;6.18;;;3.30;;
79570;SDS011;69034;49.444;7.758;2023-08-12T09:59:48;5.53;;;3.40;;
79570;SDS011;69034;49.444;7.758;2023-08-12T10:03:50;6.85;;;4.32;;
79570;SDS011;69034;49.444;7.758;2023-08-12T10:07:51;6.40;;;3.47;;
79570;SDS011;69034;49.444;7.758;2023-08-12T10:11:53;7.53;;;3.83;;
79570;SDS011;69034;49.444;7.758;2023-08-12T10:15:54;7.45;;;3.65;;
79570;SDS011;69034;49.444;7.758;2023-08-12T10:19:56;5.50;;;2.67;;
79570;SDS011;69034;49.444;7.758;2023-08-12T10:23:59;6.60;;;2.78;;
79570;SDS011;69034;49.444;7.758;2023-08-12T10:28:00;4.57;;;2.08;;
79570;SDS011;69034;49.444;7.758;2023-08-12T10:32:01;5.22;;;2.22;;
79570;SDS011;69034;49.444;7.758;2023-08-12T10:36:02;4.65;;;2.47;;
79570;SDS011;69034;49.444;7.758;2023-08-12T10:40:04;3.53;;;2.03;;
79570;SDS011;69034;49.444;7.758;2023-08-12T10:44:08;6.25;;;2.72;;
79570;SDS011;69034;49.444;7.758;2023-08-12T10:48:16;6.85;;;2.08;;
79570;SDS011;69034;49.444;7.758;2023-08-12T10:52:30;4.65;;;2.13;;
79570;SDS011;69034;49.444;7.758;2023-08-12T10:56:43;4.93;;;2.13;;
79570;SDS011;69034;49.444;7.758;2023-08-12T11:01:17;8.45;;;2.10;;
79570;SDS011;69034;49.444;7.758;2023-08-12T11:05:18;6.25;;;2.00;;
79570;SDS011;69034;49.444;7.758;2023-08-12T11:09:20;5.72;;;2.60;;
79570;SDS011;69034;49.444;7.758;2023-08-12T11:13:21;4.25;;;2.25;;
79570;SDS011;69034;49.444;7.758;2023-08-12T11:17:28;4.68;;;2.50;;
79570;SDS011;69034;49.444;7.758;2023-08-12T11:21:35;4.10;;;2.33;;
79570;SDS011;69034;49.444;7.758;2023-08-12T11:25:37;5.03;;;2.30;;
79570;SDS011;69034;49.444;7.758;2023-08-12T11:29:39;5.90;;;1.77;;
79570;SDS011;69034;49.444;7.758;2023-08-12T11:33:41;5.03;;;2.22;;
79570;SDS011;69034;49.444;7.758;2023-08-12T11:37:43;3.67;;;1.65;;
79570;SDS011;69034;49.444;7.758;2023-08-12T11:41:45;3.80;;;2.20;;
79570;SDS011;69034;49.444;7.758;2023-08-12T11:45:46;3.72;;;2.10;;
79570;SDS011;69034;49.444;7.758;2023-08-12T11:49:47;4.00;;;2.17;;
79570;SDS011;69034;49.444;7.758;2023-08-12T11:53:47;3.75;;;2.00;;
79570;SDS011;69034;49.444;7.758;2023-08-12T11:57:48;4.45;;;2.10;;
79570;SDS011;69034;49.444;7.758;2023-08-12T12:01:50;3.78;;;2.05;;
79570;SDS011;69034;49.444;7.758;2023-08-12T12:05:55;4.57;;;1.95;;
79570;SDS011;69034;49.444;7.758;2023-08-12T12:09:56;5.25;;;1.77;;
79570;SDS011;69034;49.444;7.758;2023-08-12T12:13:59;4.28;;;1.83;;
79570;SDS011;69034;49.444;7.758;2023-08-12T12:22:03;2.97;;;1.52;;
79570;SDS011;69034;49.444;7.758;2023-08-12T12:26:05;3.60;;;1.83;;
79570;SDS011;69034;49.444;7.758;2023-08-12T12:30:10;4.50;;;2.20;;
79570;SDS011;69034;49.444;7.758;2023-08-12T12:34:12;3.92;;;1.90;;
79570;SDS011;69034;49.444;7.758;2023-08-12T12:38:14;3.75;;;1.20;;
79570;SDS011;69034;49.444;7.758;2023-08-12T12:42:14;2.80;;;1.35;;
79570;SDS011;69034;49.444;7.758;2023-08-12T12:46:15;3.75;;;1.80;;
79570;SDS011;69034;49.444;7.758;2023-08-12T12:50:16;3.50;;;1.52;;
79570;SDS011;69034;49.444;7.758;2023-08-12T12:54:17;3.25;;;1.38;;
79570;SDS011;69034;49.444;7.758;2023-08-12T12:58:18;5.40;;;1.80;;
79570;SDS011;69034;49.444;7.758;2023-08-12T13:02:18;4.45;;;1.67;;
79570;SDS011;69034;49.444;7.758;2023-08-12T13:06:19;3.38;;;1.60;;
79570;SDS011;69034;49.444;7.758;2023-08-12T13:10:20;3.42;;;1.63;;
79570;SDS011;69034;49.444;7.758;2023-08-12T13:14:21;4.20;;;1.35;;
79570;SDS011;69034;49.444;7.758;2023-08-12T13:18:22;3.67;;;1.58;;
79570;SDS011;69034;49.444;7.758;2023-08-12T13:22:23;4.25;;;1.92;;
79570;SDS011;69034;49.444;7.758;2023-08-12T13:26:24;4.70;;;1.48;;
79570;SDS011;69034;49.444;7.758;2023-08-12T13:30:25;3.47;;;2.13;;
79570;SDS011;69034;49.444;7.758;2023-08-12T13:34:25;6.20;;;1.70;;
79570;SDS011;69034;49.444;7.758;2023-08-12T13:38:26;3.95;;;1.88;;
79570;SDS011;69034;49.444;7.758;2023-08-12T13:42:26;6.93;;;1.70;;
79570;SDS011;69034;49.444;7.758;2023-08-12T13:46:27;5.35;;;1.90;;
79570;SDS011;69034;49.444;7.758;2023-08-12T13:50:28;4.38;;;1.98;;
79570;SDS011;69034;49.444;7.758;2023-08-12T13:54:29;3.35;;;1.50;;
79570;SDS011;69034;49.444;7.758;2023-08-12T13:58:29;3.90;;;1.55;;
79570;SDS011;69034;49.444;7.758;2023-08-12T14:02:30;3.72;;;1.73;;
79570;SDS011;69034;49.444;7.758;2023-08-12T14:06:30;3.42;;;1.52;;
79570;SDS011;69034;49.444;7.758;2023-08-12T14:10:31;4.57;;;2.13;;
79570;SDS011;69034;49.444;7.758;2023-08-12T14:14:32;4.60;;;1.67;;
79570;SDS011;69034;49.444;7.758;2023-08-12T14:18:33;3.75;;;1.80;;
79570;SDS011;69034;49.444;7.758;2023-08-12T14:22:34;4.38;;;1.70;;
79570;SDS011;69034;49.444;7.758;2023-08-12T14:26:35;4.68;;;1.77;;
79570;SDS011;69034;49.444;7.758;2023-08-12T14:30:36;4.85;;;1.58;;
79570;SDS011;69034;49.444;7.758;2023-08-12T14:34:37;4.55;;;1.70;;
79570;SDS011;69034;49.444;7.758;2023-08-12T14:38:38;5.03;;;1.50;;
79570;SDS011;69034;49.444;7.758;2023-08-12T14:42:39;5.68;;;1.35;;
79570;SDS011;69034;49.444;7.758;2023-08-12T14:46:39;4.68;;;1.40;;
79570;SDS011;69034;49.444;7.758;2023-08-12T14:50:40;3.30;;;1.30;;
79570;SDS011;69034;49.444;7.758;2023-08-12T14:54:41;5.07;;;1.98;;
79570;SDS011;69034;49.444;7.758;2023-08-12T14:58:42;3.80;;;1.50;;
79570;SDS011;69034;49.444;7.758;2023-08-12T15:02:43;5.82;;;3.03;;
79570;SDS011;69034;49.444;7.758;2023-08-12T15:06:43;4.97;;;2.33;;
79570;SDS011;69034;49.444;7.758;2023-08-12T15:10:44;5.90;;;3.80;;
79570;SDS011;69034;49.444;7.758;2023-08-12T15:14:44;6.63;;;3.78;;
79570;SDS011;69034;49.444;7.758;2023-08-12T15:18:45;5.18;;;2.90;;
79570;SDS011;69034;49.444;7.758;2023-08-12T15:22:46;3.65;;;2.00;;
79570;SDS011;69034;49.444;7.758;2023-08-12T15:26:46;5.53;;;2.17;;
79570;SDS011;69034;49.444;7.758;2023-08-12T15:30:47;3.50;;;1.50;;
79570;SDS011;69034;49.444;7.758;2023-08-12T15:34:49;5.57;;;1.85;;
79570;SDS011;69034;49.444;7.758;2023-08-12T15:38:50;3.38;;;1.35;;
79570;SDS011;69034;49.444;7.758;2023-08-12T15:42:50;4.30;;;1.65;;
79570;SDS011;69034;49.444;7.758;2023-08-12T15:46:51;3.85;;;1.58;;
79570;SDS011;69034;49.444;7.758;2023-08-12T15:50:52;4.53;;;1.63;;
79570;SDS011;69034;49.444;7.758;2023-08-12T15:54:52;3.83;;;1.77;;
79570;SDS011;69034;49.444;7.758;2023-08-12T15:58:53;4.47;;;1.75;;
79570;SDS011;69034;49.444;7.758;2023-08-12T16:02:54;4.00;;;1.73;;
79570;SDS011;69034;49.444;7.758;2023-08-12T16:06:54;4.53;;;1.52;;
79570;SDS011;69034;49.444;7.758;2023-08-12T16:10:55;5.32;;;1.75;;
79570;SDS011;69034;49.444;7.758;2023-08-12T16:14:56;3.75;;;1.70;;
79570;SDS011;69034;49.444;7.758;2023-08-12T16:18:57;5.93;;;1.48;;
79570;SDS011;69034;49.444;7.758;2023-08-12T16:22:57;4.22;;;1.50;;
79570;SDS011;69034;49.444;7.758;2023-08-12T16:26:58;3.58;;;1.30;;
79570;SDS011;69034;49.444;7.758;2023-08-12T16:30:59;3.25;;;1.52;;
79570;SDS011;69034;49.444;7.758;2023-08-12T16:35:00;3.25;;;1.40;;
79570;SDS011;69034;49.444;7.758;2023-08-12T16:39:01;5.07;;;1.52;;
79570;SDS011;69034;49.444;7.758;2023-08-12T16:43:01;2.63;;;1.30;;
79570;SDS011;69034;49.444;7.758;2023-08-12T16:47:02;4.00;;;1.50;;
79570;SDS011;69034;49.444;7.758;2023-08-12T16:51:03;2.65;;;1.08;;
79570;SDS011;69034;49.444;7.758;2023-08-12T16:55:04;3.58;;;1.30;;
79570;SDS011;69034;49.444;7.758;2023-08-12T16:59:05;2.67;;;1.08;;
79570;SDS011;69034;49.444;7.758;2023-08-12T17:03:06;3.65;;;1.60;;
79570;SDS011;69034;49.444;7.758;2023-08-12T17:07:06;4.05;;;1.10;;
79570;SDS011;69034;49.444;7.758;2023-08-12T17:11:07;3.38;;;1.33;;
79570;SDS011;69034;49.444;7.758;2023-08-12T17:15:08;2.30;;;0.85;;
79570;SDS011;69034;49.444;7.758;2023-08-12T17:19:09;3.17;;;1.20;;
79570;SDS011;69034;49.444;7.758;2023-08-12T17:23:10;3.30;;;1.25;;
79570;SDS011;69034;49.444;7.758;2023-08-12T17:27:10;3.90;;;1.38;;
79570;SDS011;69034;49.444;7.758;2023-08-12T17:31:11;2.85;;;1.10;;
79570;SDS011;69034;49.444;7.758;2023-08-12T17:35:12;2.83;;;1.13;;
79570;SDS011;69034;49.444;7.758;2023-08-12T17:39:13;2.78;;;1.00;;
79570;SDS011;69034;49.444;7.758;2023-08-12T17:43:14;4.40;;;1.25;;
79570;SDS011;69034;49.444;7.758;2023-08-12T17:47:14;2.17;;;0.93;;
79570;SDS011;69034;49.444;7.758;2023-08-12T17:51:16;3.60;;;1.10;;
79570;SDS011;69034;49.444;7.758;2023-08-12T17:55:17;4.97;;;1.20;;
79570;SDS011;69034;49.444;7.758;2023-08-12T17:59:18;2.67;;;0.95;;
79570;SDS011;69034;49.444;7.758;2023-08-12T18:03:19;3.45;;;1.10;;
79570;SDS011;69034;49.444;7.758;2023-08-12T18:07:19;2.88;;;1.08;;
79570;SDS011;69034;49.444;7.758;2023-08-12T18:11:21;3.88;;;1.20;;
79570;SDS011;69034;49.444;7.758;2023-08-12T18:15:22;3.45;;;0.98;;
79570;SDS011;69034;49.444;7.758;2023-08-12T18:19:23;3.47;;;1.08;;
79570;SDS011;69034;49.444;7.758;2023-08-12T18:23:24;2.15;;;0.80;;
79570;SDS011;69034;49.444;7.758;2023-08-12T18:27:24;2.30;;;1.20;;
79570;SDS011;69034;49.444;7.758;2023-08-12T18:31:25;2.55;;;1.00;;
79570;SDS011;69034;49.444;7.758;2023-08-12T18:35:26;2.95;;;1.25;;
79570;SDS011;69034;49.444;7.758;2023-08-12T18:39:26;2.35;;;1.10;;
79570;SDS011;69034;49.444;7.758;2023-08-12T18:43:27;2.22;;;0.98;;
79570;SDS011;69034;49.444;7.758;2023-08-12T18:47:27;4.43;;;1.20;;
79570;SDS011;69034;49.444;7.758;2023-08-12T18:51:28;2.70;;;1.00;;
79570;SDS011;69034;49.444;7.758;2023-08-12T18:55:29;1.90;;;0.93;;
79570;SDS011;69034;49.444;7.758;2023-08-12T18:59:29;2.42;;;0.90;;
79570;SDS011;69034;49.444;7.758;2023-08-12T19:03:30;2.88;;;0.70;;
79570;SDS011;69034;49.444;7.758;2023-08-12T19:07:31;3.83;;;1.00;;
79570;SDS011;69034;49.444;7.758;2023-08-12T19:11:31;2.20;;;0.80;;
79570;SDS011;69034;49.444;7.758;2023-08-12T19:15:32;3.25;;;0.93;;
79570;SDS011;69034;49.444;7.758;2023-08-12T19:19:32;2.55;;;0.90;;
79570;SDS011;69034;49.444;7.758;2023-08-12T19:23:33;2.63;;;0.82;;
79570;SDS011;69034;49.444;7.758;2023-08-12T19:27:34;2.13;;;1.08;;
79570;SDS011;69034;49.444;7.758;2023-08-12T19:31:34;2.30;;;0.88;;
79570;SDS011;69034;49.444;7.758;2023-08-12T19:35:35;3.22;;;1.10;;
79570;SDS011;69034;49.444;7.758;2023-08-12T19:39:36;3.75;;;0.95;;
79570;SDS011;69034;49.444;7.758;2023-08-12T19:43:37;2.25;;;0.93;;
79570;SDS011;69034;49.444;7.758;2023-08-12T19:47:41;2.00;;;0.77;;
79570;SDS011;69034;49.444;7.758;2023-08-12T19:51:43;3.88;;;1.10;;
79570;SDS011;69034;49.444;7.758;2023-08-12T19:55:43;2.83;;;0.90;;
79570;SDS011;69034;49.444;7.758;2023-08-12T19:59:45;4.72;;;1.08;;
79570;SDS011;69034;49.444;7.758;2023-08-12T20:03:46;3.10;;;0.90;;
79570;SDS011;69034;49.444;7.758;2023-08-12T20:07:49;2.92;;;1.00;;
79570;SDS011;69034;49.444;7.758;2023-08-12T20:11:50;2.92;;;0.90;;
79570;SDS011;69034;49.444;7.758;2023-08-12T20:15:51;4.03;;;1.13;;
79570;SDS011;69034;49.444;7.758;2023-08-12T20:19:59;2.92;;;1.10;;
79570;SDS011;69034;49.444;7.758;2023-08-12T20:24:00;2.95;;;0.98;;
79570;SDS011;69034;49.444;7.758;2023-08-12T20:28:01;2.75;;;0.90;;
79570;SDS011;69034;49.444;7.758;2023-08-12T20:32:05;2.13;;;0.88;;
79570;SDS011;69034;49.444;7.758;2023-08-12T20:36:06;2.75;;;0.88;;
79570;SDS011;69034;49.444;7.758;2023-08-12T20:40:07;4.30;;;1.02;;
79570;SDS011;69034;49.444;7.758;2023-08-12T20:44:08;2.95;;;1.00;;
79570;SDS011;69034;49.444;7.758;2023-08-12T20:48:09;3.60;;;1.13;;
79570;SDS011;69034;49.444;7.758;2023-08-12T20:52:11;3.10;;;1.20;;
79570;SDS011;69034;49.444;7.758;2023-08-12T20:56:13;3.85;;;1.00;;
79570;SDS011;69034;49.444;7.758;2023-08-12T21:00:14;2.85;;;1.05;;
79570;SDS011;69034;49.444;7.758;2023-08-12T21:04:14;3.03;;;0.93;;
79570;SDS011;69034;49.444;7.758;2023-08-12T21:08:15;3.78;;;1.02;;
79570;SDS011;69034;49.444;7.758;2023-08-12T21:12:18;4.30;;;1.10;;
79570;SDS011;69034;49.444;7.758;2023-08-12T21:16:19;3.10;;;0.85;;
79570;SDS011;69034;49.444;7.758;2023-08-12T21:20:19;4.45;;;1.00;;
79570;SDS011;69034;49.444;7.758;2023-08-12T21:24:20;3.45;;;0.98;;
79570;SDS011;69034;49.444;7.758;2023-08-12T21:28:21;2.53;;;0.95;;
79570;SDS011;69034;49.444;7.758;2023-08-12T21:32:22;2.67;;;1.00;;
79570;SDS011;69034;49.444;7.758;2023-08-12T21:36:23;2.25;;;0.93;;
79570;SDS011;69034;49.444;7.758;2023-08-12T21:40:24;2.05;;;0.70;;
79570;SDS011;69034;49.444;7.758;2023-08-12T21:44:24;3.58;;;1.00;;
79570;SDS011;69034;49.444;7.758;2023-08-12T21:48:25;3.20;;;1.10;;
79570;SDS011;69034;49.444;7.758;2023-08-12T21:52:26;4.28;;;1.02;;
79570;SDS011;69034;49.444;7.758;2023-08-12T21:56:27;1.90;;;0.80;;
79570;SDS011;69034;49.444;7.758;2023-08-12T22:00:28;2.53;;;0.85;;
79570;SDS011;69034;49.444;7.758;2023-08-12T22:04:29;2.28;;;0.93;;
79570;SDS011;69034;49.444;7.758;2023-08-12T22:08:29;3.08;;;1.15;;
79570;SDS011;69034;49.444;7.758;2023-08-12T22:12:30;2.00;;;0.80;;
79570;SDS011;69034;49.444;7.758;2023-08-12T22:16:31;2.35;;;1.00;;
79570;SDS011;69034;49.444;7.758;2023-08-12T22:20:31;3.38;;;0.88;;
79570;SDS011;69034;49.444;7.758;2023-08-12T22:24:32;2.22;;;0.90;;
79570;SDS011;69034;49.444;7.758;2023-08-12T22:28:32;1.73;;;0.70;;
79570;SDS011;69034;49.444;7.758;2023-08-12T22:32:33;3.90;;;0.90;;
79570;SDS011;69034;49.444;7.758;2023-08-12T22:36:34;2.58;;;1.00;;
79570;SDS011;69034;49.444;7.758;2023-08-12T22:40:34;2.20;;;0.70;;
79570;SDS011;69034;49.444;7.758;2023-08-12T22:44:35;4.40;;;0.90;;
79570;SDS011;69034;49.444;7.758;2023-08-12T22:48:35;2.60;;;0.70;;
79570;SDS011;69034;49.444;7.758;2023-08-12T22:52:37;2.83;;;0.85;;
79570;SDS011;69034;49.444;7.758;2023-08-12T22:56:38;2.58;;;0.80;;
79570;SDS011;69034;49.444;7.758;2023-08-12T23:00:38;2.70;;;1.00;;
79570;SDS011;69034;49.444;7.758;2023-08-12T23:04:39;2.88;;;0.88;;
79570;SDS011;69034;49.444;7.758;2023-08-12T23:08:39;4.07;;;1.10;;
79570;SDS011;69034;49.444;7.758;2023-08-12T23:12:40;4.45;;;1.00;;
79570;SDS011;69034;49.444;7.758;2023-08-12T23:16:41;2.75;;;0.95;;
79570;SDS011;69034;49.444;7.758;2023-08-12T23:20:41;3.33;;;1.10;;
79570;SDS011;69034;49.444;7.758;2023-08-12T23:24:42;2.55;;;0.80;;
79570;SDS011;69034;49.444;7.758;2023-08-12T23:28:43;4.38;;;1.00;;
79570;SDS011;69034;49.444;7.758;2023-08-12T23:32:43;2.50;;;1.00;;
79570;SDS011;69034;49.444;7.758;2023-08-12T23:36:44;1.80;;;0.70;;
79570;SDS011;69034;49.444;7.758;2023-08-12T23:40:45;3.38;;;1.00;;
79570;SDS011;69034;49.444;7.758;2023-08-12T23:44:45;2.45;;;0.80;;
79570;SDS011;69034;49.444;7.758;2023-08-12T23:48:46;3.38;;;0.90;;
79570;SDS011;69034;49.444;7.758;2023-08-12T23:52:46;2.45;;;0.70;;
79570;SDS011;69034;49.444;7.758;2023-08-12T23:56:47;2.83;;;0.90;;
